Terminal Aerodrome Forecast
Issued by NWS North Platte, NE

Home | Current Version | Previous Version | Text Only | Print | Product List | Glossary On
Versions: 1 2 3 4 5 6 7 8 9 10 11 12 13 14 15 16 17 18 19 20 21 22 23 24 25 26 27 28 29
000
FTUS43 KLBF 151100 AAC
TAFVTN
TAF AMD
KVTN 151104Z 1511/1606 35011KT 1SM -SN BR SCT010 OVC018
     FM151200 34017G25KT 2SM -SN BLSN OVC009
     FM152000 34017G25KT 5SM -SN BLSN OVC008
     FM160000 34014KT P6SM OVC015=

USA.gov is the U.S. government's official web portal to all federal, state and local government web resources and services.